createdAt,value
2023-04-29T00:01:14.316Z,18.31
2023-04-29T00:03:41.238Z,18.19
2023-04-29T00:06:08.390Z,18.22
2023-04-29T00:08:35.285Z,18.45
2023-04-29T00:11:02.126Z,18.45
2023-04-29T00:13:29.074Z,18.42
2023-04-29T00:15:55.951Z,18.52
2023-04-29T00:18:23.163Z,18.24
2023-04-29T00:20:50.006Z,18.45
2023-04-29T00:23:16.772Z,18.24
2023-04-29T00:25:43.513Z,18.54
2023-04-29T00:28:10.329Z,18.39
2023-04-29T00:30:38.321Z,18.16
2023-04-29T00:33:05.372Z,18.19
2023-04-29T00:35:32.136Z,18.17
2023-04-29T00:37:58.890Z,17.99
2023-04-29T00:40:25.667Z,18.12
2023-04-29T00:42:52.390Z,18.21
2023-04-29T00:45:19.153Z,18.56
2023-04-29T00:47:45.934Z,18.63
2023-04-29T00:50:13.338Z,18.86
2023-04-29T00:52:40.278Z,18.56
2023-04-29T00:55:09.079Z,18.36
2023-04-29T00:57:35.988Z,19.04
2023-04-29T01:00:03.939Z,18.78
2023-04-29T01:02:30.816Z,18.73
2023-04-29T01:04:57.824Z,19.09
2023-04-29T01:07:37.108Z,19.06
2023-04-29T01:10:11.328Z,19.10
2023-04-29T01:12:54.867Z,18.90
2023-04-29T01:15:24.267Z,19.05
2023-04-29T01:18:01.724Z,18.77
2023-04-29T01:20:29.095Z,18.67
2023-04-29T01:22:55.962Z,18.93
2023-04-29T01:25:23.721Z,18.96
2023-04-29T01:28:47.641Z,19.11
2023-04-29T01:31:27.370Z,19.04
2023-04-29T01:34:12.173Z,18.86
2023-04-29T01:37:07.716Z,18.92
2023-04-29T01:39:50.543Z,18.74
2023-04-29T01:42:40.201Z,18.71
2023-04-29T01:45:11.893Z,18.66
2023-04-29T01:47:38.796Z,18.98
2023-04-29T01:50:06.720Z,19.13
2023-04-29T01:52:33.634Z,18.26
2023-04-29T01:55:00.457Z,18.01
2023-04-29T01:57:35.385Z,17.87
2023-04-29T02:00:13.615Z,17.82
2023-04-29T02:02:41.040Z,17.84
2023-04-29T02:05:15.441Z,17.96
2023-04-29T02:07:45.816Z,17.85
2023-04-29T02:10:12.667Z,17.29
2023-04-29T02:12:41.070Z,17.39
2023-04-29T02:15:09.184Z,17.20
2023-04-29T02:17:36.097Z,17.16
2023-04-29T02:20:03.208Z,17.19
2023-04-29T02:22:31.280Z,17.35
2023-04-29T02:24:59.604Z,17.22
2023-04-29T02:27:26.827Z,17.27
2023-04-29T02:29:54.562Z,17.17
2023-04-29T02:32:21.636Z,16.94
2023-04-29T02:34:49.492Z,16.78
2023-04-29T02:37:18.585Z,16.79
2023-04-29T02:39:47.173Z,16.83
2023-04-29T02:42:14.118Z,17.13
2023-04-29T02:44:41.774Z,17.33
2023-04-29T02:47:09.029Z,17.16
2023-04-29T02:49:36.033Z,17.42
2023-04-29T02:52:02.820Z,18.08
2023-04-29T02:54:29.666Z,18.79
2023-04-29T02:56:56.510Z,19.11
2023-04-29T02:59:23.444Z,19.12
2023-04-29T03:01:50.328Z,19.38
2023-04-29T03:04:17.344Z,19.28
2023-04-29T03:06:44.534Z,19.04
2023-04-29T03:09:12.634Z,18.96
2023-04-29T03:11:39.559Z,19.10
2023-04-29T03:14:06.343Z,19.28
2023-04-29T03:16:33.417Z,19.79
2023-04-29T03:19:00.555Z,20.39
2023-04-29T03:21:27.722Z,20.30
2023-04-29T03:23:54.736Z,20.79
2023-04-29T03:26:26.324Z,21.19
2023-04-29T03:28:53.626Z,21.20
2023-04-29T03:31:23.555Z,21.81
2023-04-29T03:33:51.127Z,22.08
2023-04-29T03:36:17.937Z,21.80
2023-04-29T03:38:55.039Z,22.12
2023-04-29T03:41:24.014Z,22.53
2023-04-29T03:43:51.793Z,23.10
2023-04-29T03:46:18.589Z,23.22
2023-04-29T03:48:45.488Z,23.27
2023-04-29T03:51:13.449Z,23.73
2023-04-29T03:53:40.918Z,24.39
2023-04-29T03:56:08.277Z,24.32
2023-04-29T03:58:35.102Z,24.28
2023-04-29T04:01:01.828Z,24.86
2023-04-29T04:03:33.752Z,25.21
2023-04-29T04:06:00.811Z,25.64
2023-04-29T04:08:28.105Z,26.07
2023-04-29T04:11:03.017Z,26.53
2023-04-29T04:13:36.843Z,26.51
2023-04-29T04:16:05.051Z,26.65
2023-04-29T04:18:32.121Z,27.21
2023-04-29T04:21:02.764Z,27.22
2023-04-29T04:23:31.036Z,27.59
2023-04-29T04:25:58.515Z,27.86
2023-04-29T04:28:54.203Z,28.06
2023-04-29T04:31:34.887Z,28.62
2023-04-29T04:34:02.383Z,28.73
2023-04-29T04:36:29.805Z,28.94
2023-04-29T04:38:56.601Z,29.06
2023-04-29T04:41:24.764Z,29.36
2023-04-29T04:43:52.853Z,29.79
2023-04-29T04:46:24.937Z,29.96
2023-04-29T04:48:58.924Z,29.93
2023-04-29T04:51:29.091Z,29.88
2023-04-29T04:53:55.885Z,29.98
2023-04-29T04:56:24.179Z,30.29
2023-04-29T04:58:51.017Z,30.54
2023-04-29T05:01:17.827Z,31.19
2023-04-29T05:03:44.820Z,31.40
2023-04-29T05:06:12.452Z,31.71
2023-04-29T05:08:40.666Z,31.92
2023-04-29T05:11:16.404Z,32.17
2023-04-29T05:13:43.953Z,32.31
2023-04-29T05:16:11.076Z,32.32
2023-04-29T05:18:40.377Z,31.95
2023-04-29T05:21:07.174Z,32.05
2023-04-29T05:23:34.409Z,32.24
2023-04-29T05:26:01.826Z,32.48
2023-04-29T05:28:28.616Z,32.83
2023-04-29T05:30:55.872Z,32.98
2023-04-29T05:33:22.798Z,33.05
2023-04-29T05:35:49.497Z,33.06
2023-04-29T05:38:16.658Z,33.15
2023-04-29T05:40:58.214Z,33.07
2023-04-29T05:43:31.255Z,33.07
2023-04-29T05:45:58.261Z,33.16
2023-04-29T05:48:25.385Z,33.15
2023-04-29T05:50:52.320Z,33.22
2023-04-29T05:53:19.118Z,33.24
2023-04-29T05:55:47.638Z,33.13
2023-04-29T05:58:15.110Z,33.01
2023-04-29T06:00:43.862Z,33.08
2023-04-29T06:03:13.611Z,33.16
2023-04-29T06:05:41.048Z,33.58
2023-04-29T06:08:20.403Z,33.34
2023-04-29T06:10:53.025Z,32.85
2023-04-29T06:13:20.005Z,32.29
2023-04-29T06:15:47.054Z,32.01
2023-04-29T06:18:14.817Z,32.09
2023-04-29T06:20:42.815Z,32.23
2023-04-29T06:23:09.565Z,32.20
2023-04-29T06:25:36.689Z,31.98
2023-04-29T06:28:08.548Z,31.68
2023-04-29T06:30:39.230Z,31.80
2023-04-29T06:33:06.091Z,32.39
2023-04-29T06:35:32.929Z,32.69
2023-04-29T06:38:23.497Z,32.76
2023-04-29T06:41:06.542Z,32.37
2023-04-29T06:43:52.042Z,31.80
2023-04-29T06:46:57.516Z,31.67
2023-04-29T06:49:47.220Z,31.73
2023-04-29T06:52:14.273Z,31.79
2023-04-29T06:54:42.878Z,32.01
2023-04-29T06:57:09.711Z,31.77
2023-04-29T06:59:37.220Z,32.06
2023-04-29T07:02:04.404Z,32.46
2023-04-29T07:04:31.414Z,32.52
2023-04-29T07:06:59.760Z,32.02
2023-04-29T07:10:32.604Z,29.06
2023-04-29T07:13:00.519Z,30.49
2023-04-29T07:15:27.888Z,30.83
2023-04-29T07:17:54.693Z,30.86
2023-04-29T07:20:24.210Z,31.33
2023-04-29T07:22:51.033Z,31.70
2023-04-29T07:25:18.006Z,32.13
2023-04-29T07:27:45.088Z,32.06
2023-04-29T07:30:12.598Z,31.97
2023-04-29T07:32:39.356Z,32.60
2023-04-29T07:35:06.285Z,34.13
2023-04-29T07:37:33.090Z,34.05
2023-04-29T07:39:59.817Z,33.84
2023-04-29T07:42:27.522Z,34.01
2023-04-29T07:44:54.624Z,34.47
2023-04-29T07:47:22.244Z,34.55
2023-04-29T07:49:49.079Z,34.03
2023-04-29T07:52:17.204Z,33.30
2023-04-29T07:54:43.983Z,33.23
2023-04-29T07:57:10.711Z,33.34
2023-04-29T07:59:37.522Z,32.97
2023-04-29T08:02:04.360Z,32.81
2023-04-29T08:04:31.414Z,32.76
2023-04-29T08:07:04.472Z,33.17
2023-04-29T08:09:31.336Z,33.31
2023-04-29T08:11:58.137Z,33.41
2023-04-29T08:14:25.099Z,34.01
2023-04-29T08:16:51.916Z,33.42
2023-04-29T08:19:18.686Z,32.82
2023-04-29T08:21:45.412Z,32.95
2023-04-29T08:24:12.155Z,32.16
2023-04-29T08:26:40.336Z,31.81
2023-04-29T08:29:07.386Z,32.13
2023-04-29T08:31:34.466Z,32.38
2023-04-29T08:34:01.664Z,33.37
2023-04-29T08:36:28.771Z,34.06
2023-04-29T08:38:55.955Z,33.77
2023-04-29T08:41:23.338Z,34.46
2023-04-29T08:43:50.044Z,34.66
2023-04-29T08:46:17.402Z,34.99
2023-04-29T08:48:45.524Z,35.24
2023-04-29T08:51:13.879Z,35.02
2023-04-29T08:53:40.729Z,34.89
2023-04-29T08:56:14.655Z,34.75
2023-04-29T08:58:41.681Z,34.71
2023-04-29T09:01:11.544Z,34.24
2023-04-29T09:03:52.839Z,33.05
2023-04-29T09:06:19.875Z,33.51
2023-04-29T09:08:46.778Z,32.85
2023-04-29T09:11:13.563Z,32.80
2023-04-29T09:13:40.432Z,32.37
2023-04-29T09:16:11.798Z,32.78
2023-04-29T09:18:46.820Z,32.78
2023-04-29T09:21:19.055Z,32.55
2023-04-29T09:23:48.246Z,32.92
2023-04-29T09:26:15.654Z,32.40
2023-04-29T09:28:44.848Z,32.19
2023-04-29T09:31:12.389Z,32.33
2023-04-29T09:33:55.679Z,32.46
2023-04-29T09:36:36.703Z,33.16
2023-04-29T09:39:05.796Z,33.03
2023-04-29T09:41:32.702Z,33.54
2023-04-29T09:44:06.486Z,34.04
2023-04-29T09:46:34.222Z,34.52
2023-04-29T09:49:01.148Z,34.41
2023-04-29T09:51:28.014Z,34.73
2023-04-29T09:53:54.797Z,34.79
2023-04-29T09:56:22.690Z,34.47
2023-04-29T09:58:49.469Z,33.92
2023-04-29T10:01:19.421Z,34.33
2023-04-29T10:03:46.826Z,34.18
2023-04-29T10:06:14.503Z,34.13
2023-04-29T10:08:41.977Z,35.07
2023-04-29T10:11:08.740Z,34.95
2023-04-29T10:13:38.314Z,34.42
2023-04-29T10:16:22.374Z,34.00
2023-04-29T10:18:52.375Z,33.98
2023-04-29T10:21:25.199Z,34.48
2023-04-29T10:23:51.937Z,35.26
2023-04-29T10:26:18.667Z,35.32
2023-04-29T10:28:46.381Z,35.30
2023-04-29T10:31:13.887Z,35.83
2023-04-29T10:33:40.874Z,36.35
2023-04-29T10:36:07.661Z,36.22
2023-04-29T10:38:41.712Z,36.52
2023-04-29T10:41:10.949Z,36.32
2023-04-29T10:43:39.684Z,36.10
2023-04-29T10:46:22.583Z,36.00
2023-04-29T10:48:51.163Z,35.40
2023-04-29T10:51:43.905Z,35.44
2023-04-29T10:54:16.905Z,35.21
2023-04-29T10:56:51.429Z,34.73
2023-04-29T10:59:22.593Z,35.06
2023-04-29T11:01:50.856Z,34.77
2023-04-29T11:04:19.108Z,34.35
2023-04-29T11:06:47.601Z,34.42
2023-04-29T11:09:40.865Z,34.40
2023-04-29T11:12:11.284Z,34.64
2023-04-29T11:14:43.537Z,34.74
2023-04-29T11:17:15.339Z,34.20
2023-04-29T11:19:50.760Z,33.97
2023-04-29T11:22:24.213Z,33.40
2023-04-29T11:24:51.117Z,33.24
2023-04-29T11:27:19.183Z,32.96
2023-04-29T11:29:47.567Z,33.02
2023-04-29T11:32:14.851Z,32.91
2023-04-29T11:34:42.040Z,32.99
2023-04-29T11:37:09.313Z,33.04
2023-04-29T11:39:36.337Z,33.29
2023-04-29T11:42:06.816Z,33.10
2023-04-29T11:44:35.845Z,32.89
2023-04-29T11:47:06.664Z,32.17
2023-04-29T11:49:34.062Z,31.89
2023-04-29T11:52:00.916Z,32.32
2023-04-29T11:54:30.622Z,32.46
2023-04-29T11:56:58.600Z,32.70
2023-04-29T11:59:25.729Z,32.90
2023-04-29T12:01:52.458Z,33.05
2023-04-29T12:04:22.849Z,33.02
2023-04-29T12:06:52.137Z,33.27
2023-04-29T12:09:19.722Z,32.62
2023-04-29T12:11:50.307Z,32.14
2023-04-29T12:14:17.065Z,31.99
2023-04-29T12:16:43.816Z,31.61
2023-04-29T12:19:10.655Z,31.59
2023-04-29T12:21:37.517Z,31.80
2023-04-29T12:24:04.633Z,31.93
2023-04-29T12:26:31.726Z,31.94
2023-04-29T12:29:01.325Z,31.87
2023-04-29T12:31:34.915Z,31.78
2023-04-29T12:34:03.850Z,32.05
2023-04-29T12:36:31.512Z,32.02
2023-04-29T12:38:58.972Z,32.03
2023-04-29T12:41:41.628Z,31.86
2023-04-29T12:44:08.783Z,31.56
2023-04-29T12:46:39.787Z,31.62
2023-04-29T12:49:09.712Z,31.77
2023-04-29T12:51:36.931Z,31.19
2023-04-29T12:54:04.630Z,30.91
2023-04-29T12:56:31.976Z,30.93
2023-04-29T12:59:10.070Z,30.97
2023-04-29T13:01:37.314Z,31.14
2023-04-29T13:04:06.244Z,31.01
2023-04-29T13:06:39.507Z,31.46
2023-04-29T13:09:17.034Z,31.37
2023-04-29T13:11:45.410Z,31.32
2023-04-29T13:14:12.176Z,31.13
2023-04-29T13:16:38.937Z,30.98
2023-04-29T13:19:20.912Z,30.88
2023-04-29T13:21:53.232Z,30.84
2023-04-29T13:24:20.992Z,30.45
2023-04-29T13:26:51.691Z,30.71
2023-04-29T13:29:19.725Z,30.92
2023-04-29T13:31:46.559Z,30.92
2023-04-29T13:34:13.754Z,31.00
2023-04-29T13:36:40.713Z,30.82
2023-04-29T13:39:07.457Z,30.60
2023-04-29T13:41:35.598Z,30.60
2023-04-29T13:44:03.810Z,30.73
2023-04-29T13:46:32.772Z,30.79
2023-04-29T13:54:48.113Z,31.22
2023-04-29T14:04:16.119Z,31.70
2023-04-29T14:06:44.089Z,31.75
2023-04-29T14:09:10.874Z,31.67
2023-04-29T14:11:37.658Z,31.40
2023-04-29T14:14:04.488Z,31.23
2023-04-29T14:16:31.366Z,31.45
2023-04-29T14:18:58.104Z,31.49
2023-04-29T14:21:24.895Z,31.44
2023-04-29T14:23:51.614Z,31.16
2023-04-29T14:26:28.027Z,31.00
2023-04-29T14:28:59.481Z,31.07
2023-04-29T14:31:29.642Z,30.94
2023-04-29T14:33:57.980Z,31.08
2023-04-29T14:36:25.131Z,30.92
2023-04-29T14:38:51.907Z,30.68
2023-04-29T14:41:18.795Z,30.70
2023-04-29T14:43:47.069Z,30.71
2023-04-29T14:46:14.056Z,30.69
2023-04-29T14:48:40.834Z,30.63
2023-04-29T14:51:07.769Z,30.82
2023-04-29T14:53:34.657Z,30.99
2023-04-29T14:56:01.461Z,31.26
2023-04-29T14:58:29.327Z,31.31
2023-04-29T15:00:56.352Z,30.97
2023-04-29T15:03:23.809Z,30.81
2023-04-29T15:05:51.445Z,30.53
2023-04-29T15:08:19.162Z,30.41
2023-04-29T15:10:48.134Z,30.69
2023-04-29T15:13:15.059Z,30.82
2023-04-29T15:15:41.929Z,30.75
2023-04-29T15:18:09.162Z,30.86
2023-04-29T15:20:37.058Z,30.94
2023-04-29T15:23:04.574Z,30.98
2023-04-29T15:25:33.518Z,30.47
2023-04-29T15:28:01.201Z,30.52
2023-04-29T15:30:28.294Z,30.40
2023-04-29T15:32:55.314Z,30.62
2023-04-29T15:35:22.305Z,30.76
2023-04-29T15:37:49.740Z,30.83
2023-04-29T15:40:17.703Z,30.63
2023-04-29T15:42:44.549Z,30.64
2023-04-29T15:45:11.762Z,30.45
2023-04-29T15:47:39.388Z,30.35
2023-04-29T15:50:07.512Z,30.05
2023-04-29T15:52:34.304Z,29.81
2023-04-29T15:55:01.053Z,29.77
2023-04-29T15:57:27.786Z,29.83
2023-04-29T15:59:54.795Z,29.90
2023-04-29T16:02:22.294Z,30.12
2023-04-29T16:04:49.267Z,30.10
2023-04-29T16:07:16.237Z,30.09
2023-04-29T16:09:42.962Z,30.19
2023-04-29T16:12:11.759Z,29.90
2023-04-29T16:14:38.705Z,29.94
2023-04-29T16:17:05.976Z,30.02
2023-04-29T16:19:35.168Z,30.35
2023-04-29T16:22:03.521Z,30.31
2023-04-29T16:24:30.268Z,30.07
2023-04-29T16:26:57.338Z,30.21
2023-04-29T16:29:24.547Z,30.31
2023-04-29T16:31:51.336Z,30.50
2023-04-29T16:34:18.125Z,30.33
2023-04-29T16:36:45.147Z,30.06
2023-04-29T16:39:12.049Z,29.88
2023-04-29T16:41:38.907Z,30.09
2023-04-29T16:44:05.644Z,30.25
2023-04-29T16:46:32.729Z,29.84
2023-04-29T16:48:59.618Z,29.83
2023-04-29T16:51:26.553Z,30.01
2023-04-29T16:53:53.631Z,29.86
2023-04-29T16:56:21.722Z,29.27
2023-04-29T16:58:48.700Z,29.01
2023-04-29T17:01:15.842Z,28.66
2023-04-29T17:03:42.666Z,29.72
2023-04-29T17:06:09.502Z,29.99
2023-04-29T17:08:36.248Z,29.97
2023-04-29T17:11:03.038Z,29.95
2023-04-29T17:13:29.858Z,29.70
2023-04-29T17:15:56.970Z,29.41
2023-04-29T17:18:23.854Z,29.50
2023-04-29T17:20:51.493Z,29.33
2023-04-29T17:23:18.443Z,29.29
2023-04-29T17:25:45.362Z,29.22
2023-04-29T17:28:12.174Z,28.67
2023-04-29T17:30:38.927Z,28.74
2023-04-29T17:33:06.174Z,28.75
2023-04-29T17:35:33.460Z,28.37
2023-04-29T17:38:00.397Z,28.22
2023-04-29T17:40:27.538Z,27.68
2023-04-29T17:42:54.456Z,27.72
2023-04-29T17:45:21.272Z,27.71
2023-04-29T17:47:48.470Z,27.60
2023-04-29T17:50:15.528Z,27.72
2023-04-29T17:52:42.790Z,27.67
2023-04-29T17:55:10.343Z,27.50
2023-04-29T17:57:38.386Z,27.17
2023-04-29T18:00:07.473Z,27.00
2023-04-29T18:02:34.653Z,26.97
2023-04-29T18:05:03.254Z,26.66
2023-04-29T18:07:30.037Z,26.36
2023-04-29T18:09:57.654Z,26.50
2023-04-29T18:12:25.043Z,26.48
2023-04-29T18:14:52.370Z,26.51
2023-04-29T18:17:19.922Z,26.51
2023-04-29T18:19:48.725Z,26.12
2023-04-29T18:22:16.060Z,26.04
2023-04-29T18:24:43.099Z,25.86
2023-04-29T18:27:09.864Z,25.97
2023-04-29T18:29:36.605Z,25.87
2023-04-29T18:32:05.698Z,25.85
2023-04-29T18:34:34.136Z,25.83
2023-04-29T18:37:01.492Z,25.66
2023-04-29T18:39:28.249Z,25.30
2023-04-29T18:41:55.391Z,25.13
2023-04-29T18:44:22.145Z,24.98
2023-04-29T18:46:49.304Z,25.23
2023-04-29T18:49:17.938Z,25.16
2023-04-29T18:51:47.804Z,24.99
2023-04-29T18:54:16.030Z,24.92
2023-04-29T18:56:44.671Z,24.93
2023-04-29T18:59:13.226Z,24.74
2023-04-29T19:01:40.082Z,24.69
2023-04-29T19:04:09.808Z,24.44
2023-04-29T19:06:37.002Z,24.59
2023-04-29T19:09:04.284Z,24.14
2023-04-29T19:11:33.136Z,24.25
2023-04-29T19:13:59.851Z,24.25
2023-04-29T19:16:26.713Z,23.99
2023-04-29T19:18:53.538Z,23.80
2023-04-29T19:21:20.760Z,23.71
2023-04-29T19:23:47.599Z,23.72
2023-04-29T19:27:17.427Z,19.86
2023-04-29T19:29:44.149Z,22.17
2023-04-29T19:32:11.009Z,22.52
2023-04-29T19:34:37.752Z,22.35
2023-04-29T19:37:04.533Z,22.47
2023-04-29T19:39:31.421Z,22.77
2023-04-29T19:41:58.314Z,22.68
2023-04-29T19:44:25.387Z,22.55
2023-04-29T19:46:53.946Z,22.66
2023-04-29T19:49:21.046Z,22.52
2023-04-29T19:51:47.822Z,22.74
2023-04-29T19:54:14.593Z,22.77
2023-04-29T19:56:41.320Z,22.81
2023-04-29T19:59:08.120Z,22.86
2023-04-29T20:01:34.943Z,22.95
2023-04-29T20:04:02.155Z,22.97
2023-04-29T20:06:29.029Z,23.11
2023-04-29T20:08:56.712Z,23.05
2023-04-29T20:11:24.774Z,23.02
2023-04-29T20:13:52.208Z,23.04
2023-04-29T20:16:18.989Z,23.02
2023-04-29T20:18:45.885Z,23.05
2023-04-29T20:21:12.688Z,23.01
2023-04-29T20:23:41.066Z,23.17
2023-04-29T20:26:08.501Z,23.37
2023-04-29T20:28:35.253Z,22.85
2023-04-29T20:31:02.286Z,22.80
2023-04-29T20:33:29.169Z,22.78
2023-04-29T20:35:57.567Z,22.67
2023-04-29T20:38:24.763Z,22.53
2023-04-29T20:40:54.681Z,22.37
2023-04-29T20:43:21.506Z,22.27
2023-04-29T20:45:48.707Z,22.42
2023-04-29T20:48:16.194Z,22.79
2023-04-29T20:50:43.018Z,22.70
2023-04-29T20:53:10.331Z,22.62
2023-04-29T20:55:37.147Z,22.66
2023-04-29T20:58:03.910Z,22.40
2023-04-29T21:00:30.845Z,22.28
2023-04-29T21:02:57.773Z,22.31
2023-04-29T21:05:24.842Z,22.56
2023-04-29T21:07:51.682Z,22.60
2023-04-29T21:10:18.493Z,22.35
2023-04-29T21:12:45.257Z,22.46
2023-04-29T21:15:12.186Z,22.39
2023-04-29T21:17:40.960Z,22.57
2023-04-29T21:20:08.762Z,22.76
2023-04-29T21:22:35.577Z,22.98
2023-04-29T21:25:02.638Z,22.82
2023-04-29T21:27:29.363Z,22.81
2023-04-29T21:29:56.933Z,22.81
2023-04-29T21:32:26.812Z,22.89
2023-04-29T21:34:53.603Z,22.81
2023-04-29T21:37:21.934Z,22.70
2023-04-29T21:39:48.729Z,22.56
2023-04-29T21:42:21.196Z,22.70
2023-04-29T21:44:47.957Z,22.63
2023-04-29T21:47:14.785Z,22.62
2023-04-29T21:49:41.906Z,22.71
2023-04-29T21:52:08.935Z,22.68
2023-04-29T21:54:35.932Z,22.78
2023-04-29T21:57:03.067Z,23.02
2023-04-29T21:59:34.341Z,22.76
2023-04-29T22:02:01.419Z,22.71
2023-04-29T22:04:28.273Z,22.82
2023-04-29T22:06:59.051Z,22.52
2023-04-29T22:09:26.200Z,22.78
2023-04-29T22:11:52.902Z,23.01
2023-04-29T22:14:19.660Z,23.09
2023-04-29T22:16:46.531Z,22.94
2023-04-29T22:19:13.300Z,22.87
2023-04-29T22:21:43.239Z,22.65
2023-04-29T22:24:10.229Z,23.12
2023-04-29T22:26:37.003Z,23.22
2023-04-29T22:29:03.797Z,23.35
2023-04-29T22:31:30.638Z,23.33
2023-04-29T22:33:57.426Z,23.11
2023-04-29T22:36:24.305Z,23.17
2023-04-29T22:38:51.080Z,23.27
2023-04-29T22:41:19.783Z,23.15
2023-04-29T22:43:46.609Z,23.28
2023-04-29T22:46:13.462Z,22.95
2023-04-29T22:48:40.397Z,22.83
2023-04-29T22:51:07.214Z,22.82
2023-04-29T22:53:34.092Z,22.71
2023-04-29T22:56:02.151Z,22.30
2023-04-29T22:58:29.189Z,22.64
2023-04-29T23:00:57.279Z,22.81
2023-04-29T23:03:24.332Z,22.74
2023-04-29T23:05:51.235Z,22.76
2023-04-29T23:08:18.078Z,22.93
2023-04-29T23:10:51.251Z,22.96
2023-04-29T23:13:18.198Z,22.77
2023-04-29T23:15:45.488Z,22.82
2023-04-29T23:18:12.486Z,22.80
2023-04-29T23:20:39.351Z,22.44
2023-04-29T23:23:06.327Z,22.41
2023-04-29T23:25:33.058Z,22.57
2023-04-29T23:27:59.781Z,22.73
2023-04-29T23:30:26.957Z,22.91
2023-04-29T23:32:53.769Z,22.89
2023-04-29T23:35:20.922Z,22.78
2023-04-29T23:37:47.802Z,22.68
2023-04-29T23:40:17.218Z,22.48
2023-04-29T23:42:44.035Z,22.64
2023-04-29T23:45:10.805Z,22.92
2023-04-29T23:47:37.764Z,23.13
2023-04-29T23:50:05.773Z,23.00
2023-04-29T23:52:32.531Z,22.81
2023-04-29T23:54:59.682Z,22.65
2023-04-29T23:57:26.443Z,22.89
2023-04-29T23:59:53.434Z,23.16
